createdAt,value
2022-08-11T08:04:39.200Z,34.90
2022-08-11T08:07:45.642Z,35.30
2022-08-11T08:10:53.865Z,34.90
2022-08-11T08:14:00.512Z,35.10
2022-08-11T08:17:07.108Z,35.60
2022-08-11T08:25:40.805Z,36.20
2022-08-11T08:31:22.042Z,36.70
2022-08-11T08:34:11.768Z,36.90
2022-08-11T08:37:01.925Z,37.00
2022-08-11T08:39:50.981Z,37.30
2022-08-11T08:42:45.246Z,37.40
2022-08-11T08:45:37.751Z,37.80
2022-08-11T08:48:29.756Z,37.80
2022-08-11T08:52:01.406Z,38.20
2022-08-11T08:54:54.086Z,38.60
2022-08-11T08:57:44.894Z,38.40
2022-08-11T09:00:43.584Z,38.40
2022-08-11T09:04:06.661Z,38.90
2022-08-11T09:06:43.967Z,38.80
2022-08-11T09:09:37.864Z,39.40
2022-08-11T09:12:38.595Z,39.70
2022-08-11T09:15:28.551Z,39.80
2022-08-11T09:18:19.455Z,39.90
2022-08-11T09:21:09.034Z,40.00
2022-08-11T09:24:24.985Z,40.20
2022-08-11T09:27:15.433Z,40.20
2022-08-11T09:30:06.515Z,40.60
2022-08-11T09:32:58.136Z,40.80
2022-08-11T09:35:49.503Z,40.80
2022-08-11T09:38:55.962Z,39.80
2022-08-11T09:41:55.555Z,40.10
2022-08-11T09:44:49.591Z,40.50
2022-08-11T09:47:40.750Z,40.90
2022-08-11T09:50:29.837Z,40.80
2022-08-11T09:53:36.743Z,40.60
2022-08-11T09:56:48.501Z,40.50
2022-08-11T09:59:37.254Z,41.00
2022-08-11T10:02:30.636Z,41.50
2022-08-11T10:05:39.472Z,41.40
2022-08-11T10:08:30.912Z,41.50
2022-08-11T10:11:24.607Z,41.30
2022-08-11T10:14:35.026Z,41.00
2022-08-11T10:17:24.768Z,41.30
2022-08-11T10:20:13.951Z,41.90
2022-08-11T10:23:22.224Z,42.30
2022-08-11T10:26:28.723Z,41.90
2022-08-11T10:29:45.349Z,40.80
2022-08-11T10:33:00.051Z,41.20
2022-08-11T10:35:50.213Z,42.10
2022-08-11T10:38:40.315Z,42.00
2022-08-11T10:42:07.591Z,41.70
2022-08-11T10:45:01.488Z,42.00
2022-08-11T10:47:50.003Z,42.20
2022-08-11T10:51:08.075Z,41.70
2022-08-11T10:57:23.497Z,40.40
2022-08-11T11:00:15.069Z,40.70
2022-08-11T11:03:22.264Z,40.20
2022-08-11T11:06:29.266Z,41.30
2022-08-11T11:09:23.242Z,41.20
2022-08-11T11:12:30.674Z,41.50
2022-08-11T11:15:38.996Z,40.90
2022-08-11T11:18:29.924Z,41.50
2022-08-11T11:21:21.648Z,42.20
2022-08-11T11:24:16.862Z,42.20
2022-08-11T11:27:15.587Z,41.80
2022-08-11T11:30:07.630Z,41.60
2022-08-11T11:33:05.565Z,41.90
2022-08-11T11:36:09.709Z,41.50
2022-08-11T11:38:59.029Z,41.70
2022-08-11T11:41:48.087Z,41.20
2022-08-11T11:44:39.428Z,41.20
2022-08-11T11:47:28.278Z,41.50
2022-08-11T11:50:19.271Z,41.90
2022-08-11T11:53:10.805Z,42.00
2022-08-11T11:56:01.457Z,41.90
2022-08-11T11:59:08.778Z,41.80
2022-08-11T12:02:11.902Z,41.80
2022-08-11T12:05:02.482Z,42.10
2022-08-11T12:08:12.676Z,41.80
2022-08-11T12:11:33.254Z,42.60
2022-08-11T12:14:25.631Z,42.80
2022-08-11T12:17:15.778Z,42.10
2022-08-11T12:20:05.976Z,41.80
2022-08-11T12:23:33.654Z,42.00
2022-08-11T12:26:41.013Z,42.10
2022-08-11T12:29:30.181Z,42.00
2022-08-11T12:32:21.786Z,42.40
2022-08-11T12:35:11.362Z,42.10
2022-08-11T12:38:05.990Z,41.90
2022-08-11T12:41:17.725Z,41.90
2022-08-11T12:44:39.564Z,42.40
2022-08-11T12:48:40.159Z,42.70
2022-08-11T12:51:22.226Z,43.20
2022-08-11T12:54:15.630Z,42.70
2022-08-11T12:57:36.903Z,42.90
2022-08-11T13:00:48.847Z,42.40
2022-08-11T13:03:57.908Z,42.40
2022-08-11T13:06:47.740Z,41.90
2022-08-11T13:09:36.705Z,42.20
2022-08-11T13:12:44.062Z,42.30
2022-08-11T13:15:33.494Z,41.10
2022-08-11T13:18:24.047Z,40.20
2022-08-11T13:21:20.326Z,40.60
2022-08-11T13:24:10.016Z,41.20
2022-08-11T13:26:59.784Z,41.80
2022-08-11T13:29:50.016Z,41.20
2022-08-11T13:32:39.843Z,40.90
2022-08-11T13:35:31.475Z,40.70
2022-08-11T13:38:25.465Z,40.80
2022-08-11T13:41:32.349Z,41.20
2022-08-11T13:44:25.569Z,41.40
2022-08-11T13:47:16.241Z,41.10
2022-08-11T13:50:05.993Z,40.50
2022-08-11T13:52:54.699Z,40.20
2022-08-11T13:55:52.230Z,40.60
2022-08-11T13:58:41.386Z,40.70
2022-08-11T14:02:03.581Z,40.90
2022-08-11T14:04:46.190Z,39.20
2022-08-11T14:07:39.674Z,40.50
2022-08-11T14:10:31.256Z,41.20
2022-08-11T14:13:41.550Z,41.00
2022-08-11T14:16:44.164Z,40.50
2022-08-11T14:19:37.673Z,40.40
2022-08-11T14:22:25.741Z,40.70
2022-08-11T14:25:16.773Z,40.60
2022-08-11T14:28:30.679Z,40.60
2022-08-11T14:31:16.999Z,40.20
2022-08-11T14:34:08.501Z,40.10
2022-08-11T14:36:59.930Z,40.20
2022-08-11T14:39:52.517Z,40.00
2022-08-11T14:48:56.998Z,38.90
2022-08-11T14:51:47.209Z,38.30
2022-08-11T14:54:54.769Z,38.30
2022-08-11T14:57:55.518Z,38.40
2022-08-11T15:00:46.121Z,35.30
2022-08-11T15:03:34.609Z,37.60
2022-08-11T15:06:28.639Z,37.60
2022-08-11T15:09:17.797Z,37.70
2022-08-11T15:12:32.847Z,37.50
2022-08-11T15:15:41.473Z,37.60
2022-08-11T15:18:32.468Z,37.50
2022-08-11T15:21:38.610Z,37.40
2022-08-11T15:24:30.757Z,37.20
2022-08-11T15:27:41.047Z,37.00
